Time;durP1;ratioP1;P1;durP2;ratioP2;P2;SDS_P1;SDS_P2;PMS_P1;PMS_P2;Temp;Humidity;BMP_temperature;BMP_pressure;BME280_temperature;BME280_humidity;BME280_pressure;Samples;Min_cycle;Max_cycle;Signal;HPM_P1;HPM_P2
2022/08/25 00:01:38;;;;;;;2.45;2.22;;;25.50;67.30;;;;;;5037692;28;43487;-66
2022/08/25 00:04:10;;;;;;;2.03;1.92;;;25.50;67.30;;;;;;5040050;28;44777;-66
2022/08/25 00:06:42;;;;;;;2.30;2.20;;;25.50;67.30;;;;;;5036950;28;44020;-66
2022/08/25 00:09:14;;;;;;;2.10;2.00;;;25.50;67.30;;;;;;5032407;28;43505;-66
2022/08/25 00:11:42;;;;;;;2.30;2.10;;;25.50;67.30;;;;;;5038278;28;43415;-66
2022/08/25 00:14:13;;;;;;;1.70;1.70;;;25.50;67.30;;;;;;5039719;28;44891;-66
2022/08/25 00:16:42;;;;;;;2.17;2.08;;;25.50;67.30;;;;;;5035102;28;43995;-66
2022/08/25 00:19:14;;;;;;;2.30;2.10;;;25.50;67.40;;;;;;5035603;28;43458;-66
2022/08/25 00:21:42;;;;;;;2.17;2.05;;;25.50;67.30;;;;;;5039059;28;43519;-66
2022/08/25 00:24:12;;;;;;;2.25;2.15;;;25.50;67.30;;;;;;5038322;28;44700;-66
2022/08/25 00:26:42;;;;;;;2.58;2.35;;;25.40;67.30;;;;;;5035783;28;43957;-66
2022/08/25 00:29:10;;;;;;;2.13;2.03;;;25.40;67.30;;;;;;5052070;28;43455;-66
2022/08/25 00:31:38;;;;;;;2.42;2.33;;;25.40;67.30;;;;;;5041267;28;43398;-66
2022/08/25 00:34:09;;;;;;;2.42;2.22;;;25.40;67.20;;;;;;5038039;28;44789;-66
2022/08/25 00:36:37;;;;;;;;;;;25.40;67.30;;;;;;5030314;28;43997;-66
2022/08/25 00:39:06;;;;;;;2.78;2.33;;;25.40;67.30;;;;;;5037995;28;43523;-67
2022/08/25 00:41:35;;;;;;;2.20;2.10;;;25.40;67.30;;;;;;5039387;28;43528;-66
2022/08/25 00:44:06;;;;;;;2.17;2.08;;;25.40;67.30;;;;;;5037880;28;44703;-66
2022/08/25 00:46:49;;;;;;;2.15;2.03;;;25.40;67.30;;;;;;5031188;28;43677;-66
2022/08/25 00:49:18;;;;;;;2.10;2.00;;;25.40;67.30;;;;;;5043052;28;43513;-66
2022/08/25 00:52:10;;;;;;;2.20;2.10;;;25.40;67.30;;;;;;5043245;28;43576;-67
2022/08/25 00:54:43;;;;;;;2.60;2.40;;;25.40;67.30;;;;;;5033260;28;44323;-66
2022/08/25 00:57:14;;;;;;;2.00;1.90;;;25.40;67.30;;;;;;5035195;28;43948;-66
2022/08/25 00:59:43;;;;;;;2.42;2.22;;;25.30;67.20;;;;;;5041069;28;43657;-66
2022/08/25 01:02:14;;;;;;;2.30;2.20;;;25.30;67.20;;;;;;5032304;28;43505;-66
2022/08/25 01:04:42;;;;;;;;;;;25.30;67.20;;;;;;5033814;28;44939;-66
2022/08/25 01:07:18;;;;;;;2.05;1.95;;;25.30;67.20;;;;;;5040077;28;43635;-66
2022/08/25 01:09:48;;;;;;;1.90;1.80;;;25.30;67.20;;;;;;5042609;28;43411;-66
2022/08/25 01:12:16;;;;;;;2.40;2.30;;;25.30;67.20;;;;;;5037575;28;43609;-66
2022/08/25 01:14:45;;;;;;;2.30;2.10;;;25.30;67.20;;;;;;5041598;28;44670;-66
2022/08/25 01:17:13;;;;;;;2.25;2.15;;;25.30;67.20;;;;;;5035343;28;43658;-66
2022/08/25 01:19:41;;;;;;;2.13;2.03;;;25.30;67.20;;;;;;5043734;28;43414;-66
2022/08/25 01:22:10;;;;;;;2.30;2.10;;;25.30;67.20;;;;;;5032035;28;43392;-66
2022/08/25 01:24:46;;;;;;;2.10;2.00;;;25.30;67.20;;;;;;5034680;28;43699;-66
2022/08/25 01:27:13;;;;;;;2.30;2.20;;;25.30;67.20;;;;;;5040081;28;43552;-66
2022/08/25 01:29:41;;;;;;;2.25;2.10;;;25.30;67.10;;;;;;5032499;28;43407;-66
2022/08/25 01:32:12;;;;;;;2.25;2.15;;;25.20;67.00;;;;;;5035900;28;43558;-66
2022/08/25 01:34:42;;;;;;;2.35;2.25;;;25.30;67.00;;;;;;5032044;28;44219;-66
2022/08/25 01:37:12;;;;;;;2.38;2.28;;;25.20;66.90;;;;;;5033354;28;43984;-66
2022/08/25 01:39:41;;;;;;;2.27;2.17;;;25.20;66.90;;;;;;5034766;28;43735;-66
2022/08/25 01:42:37;;;;;;;2.58;2.38;;;25.20;66.90;;;;;;5032337;28;43403;-66
2022/08/25 01:45:05;;;;;;;2.13;2.03;;;25.20;66.80;;;;;;5033066;28;44987;-66
2022/08/25 01:47:33;;;;;;;2.20;2.10;;;25.20;66.90;;;;;;5041240;28;44028;-66
2022/08/25 01:50:01;;;;;;;4.13;2.10;;;25.20;66.90;;;;;;5029274;28;43451;-66
2022/08/25 01:52:44;;;;;;;2.55;2.45;;;25.20;66.90;;;;;;5042560;28;44012;-66
2022/08/25 01:55:11;;;;;;;2.45;2.25;;;25.20;66.90;;;;;;5032235;28;44699;-66
2022/08/25 01:57:39;;;;;;;2.63;2.30;;;25.20;66.90;;;;;;5029695;28;43767;-67
2022/08/25 02:00:11;;;;;;;2.50;2.30;;;25.20;66.90;;;;;;5040411;28;43499;-66
2022/08/25 02:02:41;;;;;;;2.63;2.30;;;25.20;66.90;;;;;;5032144;28;43479;-66
2022/08/25 02:05:12;;;;;;;;;;;25.20;66.90;;;;;;5040782;28;43809;-66
2022/08/25 02:07:41;;;;;;;2.40;2.30;;;25.10;66.80;;;;;;5030610;28;43815;-66
2022/08/25 02:10:12;;;;;;;2.35;2.15;;;25.10;66.80;;;;;;5030176;28;43450;-66
2022/08/25 02:12:40;;;;;;;2.15;2.05;;;25.20;66.90;;;;;;5038402;28;43530;-67
2022/08/25 02:15:08;;;;;;;2.30;2.00;;;25.10;66.80;;;;;;5041300;28;44937;-67
2022/08/25 02:17:36;;;;;;;2.13;2.03;;;25.10;66.70;;;;;;5046101;28;43963;-66
2022/08/25 02:20:07;;;;;;;2.50;2.30;;;25.10;66.70;;;;;;5029542;28;43469;-67
2022/08/25 02:22:35;;;;;;;2.40;2.20;;;25.10;66.70;;;;;;5037641;28;43519;-66
2022/08/25 02:25:02;;;;;;;2.20;2.10;;;25.10;66.60;;;;;;5022830;28;45017;-66
2022/08/25 02:27:30;;;;;;;2.78;2.30;;;25.20;66.70;;;;;;5039909;28;43982;-66
2022/08/25 02:29:57;;;;;;;2.42;2.22;;;25.10;66.60;;;;;;5038344;28;43411;-66
2022/08/25 02:32:26;;;;;;;2.22;2.13;;;25.10;66.60;;;;;;5032006;28;43530;-66
2022/08/25 02:34:53;;;;;;;2.13;2.03;;;25.10;66.60;;;;;;5030161;28;44040;-66
2022/08/25 02:37:21;;;;;;;2.25;2.15;;;25.10;66.60;;;;;;5032494;28;43697;-66
2022/08/25 02:39:49;;;;;;;2.65;2.45;;;25.10;66.60;;;;;;5031697;28;43457;-66
2022/08/25 02:42:16;;;;;;;2.20;2.10;;;25.10;66.60;;;;;;5040729;28;44072;-66
2022/08/25 02:44:44;;;;;;;2.22;2.13;;;25.10;66.60;;;;;;5034573;28;43787;-66
2022/08/25 02:47:11;;;;;;;2.22;2.13;;;25.10;66.60;;;;;;5040205;28;43899;-66
2022/08/25 02:49:39;;;;;;;2.63;2.42;;;25.10;66.60;;;;;;5038600;28;43613;-66
2022/08/25 02:52:08;;;;;;;2.50;2.30;;;25.10;66.60;;;;;;5042184;28;43475;-66
2022/08/25 02:54:35;;;;;;;2.72;2.45;;;25.10;66.60;;;;;;5030878;28;44668;-66
2022/08/25 02:57:03;;;;;;;2.42;2.22;;;25.10;66.70;;;;;;5033766;28;43447;-66
2022/08/25 02:59:31;;;;;;;2.20;2.00;;;25.10;66.60;;;;;;5036914;28;43490;-66
2022/08/25 03:01:58;;;;;;;2.30;2.20;;;25.00;66.60;;;;;;5032912;28;43510;-66
2022/08/25 03:04:26;;;;;;;2.13;2.03;;;25.00;66.50;;;;;;5037643;28;44746;-66
2022/08/25 03:06:54;;;;;;;2.42;2.25;;;25.00;66.60;;;;;;5032389;28;43494;-66
2022/08/25 03:09:21;;;;;;;2.42;2.33;;;25.00;66.50;;;;;;5036396;28;43800;-66
2022/08/25 03:11:49;;;;;;;2.50;2.30;;;25.00;66.50;;;;;;5036297;28;44012;-66
2022/08/25 03:14:17;;;;;;;2.35;2.20;;;25.00;66.50;;;;;;5040094;28;44796;-66
2022/08/25 03:16:44;;;;;;;2.63;2.42;;;25.00;66.50;;;;;;5035196;28;43496;-66
2022/08/25 03:19:12;;;;;;;2.42;2.33;;;25.00;66.50;;;;;;5039680;28;43380;-66
2022/08/25 03:21:40;;;;;;;2.45;2.35;;;25.00;66.50;;;;;;5032732;28;43543;-66
2022/08/25 03:24:07;;;;;;;2.40;2.28;;;25.00;66.50;;;;;;5037368;28;43987;-66
2022/08/25 03:26:53;;;;;;;2.30;2.20;;;25.00;66.50;;;;;;5038888;28;43701;-66
2022/08/25 03:29:26;;;;;;;2.35;2.20;;;25.00;66.50;;;;;;5033745;28;43449;-66
2022/08/25 03:31:56;;;;;;;2.55;2.35;;;24.90;66.50;;;;;;5037004;28;43473;-66
2022/08/25 03:34:27;;;;;;;2.35;2.20;;;24.90;66.50;;;;;;5035125;28;43890;-67
2022/08/25 03:36:56;;;;;;;2.33;2.13;;;24.90;66.50;;;;;;5040442;28;43984;-66
2022/08/25 03:39:25;;;;;;;2.60;2.50;;;25.00;66.60;;;;;;5051279;28;43475;-66
2022/08/25 03:41:53;;;;;;;2.50;2.40;;;25.00;66.50;;;;;;5033983;28;43570;-66
2022/08/25 03:44:21;;;;;;;2.70;2.50;;;24.90;66.50;;;;;;5042734;28;44969;-66
2022/08/25 03:46:50;;;;;;;2.33;2.22;;;24.90;66.50;;;;;;5042716;28;43457;-66
2022/08/25 03:49:22;;;;;;;2.38;2.28;;;24.90;66.50;;;;;;5043156;28;43457;-66
2022/08/25 03:51:51;;;;;;;2.45;2.35;;;24.90;66.50;;;;;;5037192;28;43522;-66
2022/08/25 03:54:23;;;;;;;2.60;2.42;;;24.90;66.50;;;;;;5042567;28;44074;-66
2022/08/25 03:56:51;;;;;;;2.50;2.40;;;24.90;66.50;;;;;;5036915;28;44001;-66
2022/08/25 03:59:19;;;;;;;2.33;2.22;;;24.90;66.50;;;;;;5038653;28;43443;-66
2022/08/25 04:01:47;;;;;;;2.55;2.42;;;24.90;66.60;;;;;;5037742;28;43478;-66
2022/08/25 04:04:21;;;;;;;2.38;2.17;;;24.90;66.60;;;;;;5039122;28;43997;-66
2022/08/25 04:06:48;;;;;;;2.42;2.33;;;24.90;66.60;;;;;;5036343;28;43482;-66
2022/08/25 04:09:16;;;;;;;2.50;2.30;;;24.90;66.60;;;;;;5032132;28;43440;-66
2022/08/25 04:11:43;;;;;;;2.50;2.40;;;24.90;66.60;;;;;;5036856;28;43451;-66
2022/08/25 04:14:11;;;;;;;2.65;2.45;;;24.90;66.60;;;;;;5043482;28;44145;-66
2022/08/25 04:16:44;;;;;;;2.28;2.17;;;24.90;66.60;;;;;;5035924;28;43395;-67
2022/08/25 04:19:12;;;;;;;2.67;2.47;;;24.80;66.50;;;;;;5033489;28;43518;-66
2022/08/25 04:21:40;;;;;;;2.60;2.47;;;24.90;66.60;;;;;;5038303;28;43427;-66
2022/08/25 04:24:10;;;;;;;2.30;2.20;;;24.80;66.50;;;;;;5037939;28;44052;-66
2022/08/25 04:26:44;;;;;;;2.42;2.33;;;24.80;66.50;;;;;;5035865;28;44099;-66
2022/08/25 04:29:13;;;;;;;2.58;2.38;;;24.80;66.60;;;;;;5038564;28;43927;-66
2022/08/25 04:31:43;;;;;;;2.67;2.53;;;24.80;66.60;;;;;;5038430;28;43387;-67
2022/08/25 04:34:10;;;;;;;2.57;2.47;;;24.80;66.60;;;;;;5036881;28;45761;-67
2022/08/25 04:37:02;;;;;;;2.75;2.40;;;24.70;66.60;;;;;;5032655;28;44039;-67
2022/08/25 04:39:30;;;;;;;2.53;2.30;;;24.70;66.60;;;;;;5039547;28;43537;-67
2022/08/25 04:41:59;;;;;;;2.50;2.30;;;24.70;66.60;;;;;;5042681;28;43469;-67
2022/08/25 04:44:28;;;;;;;2.30;2.20;;;24.70;66.60;;;;;;5033160;28;43824;-67
2022/08/25 04:46:56;;;;;;;2.55;2.40;;;24.70;66.60;;;;;;5029741;28;43454;-67
2022/08/25 04:49:23;;;;;;;2.53;2.35;;;24.70;66.60;;;;;;5041981;28;43435;-67
2022/08/25 04:51:51;;;;;;;2.75;2.55;;;24.70;66.60;;;;;;5043883;28;43591;-67
2022/08/25 04:54:22;;;;;;;2.90;2.70;;;24.70;66.60;;;;;;5032417;28;44064;-67
2022/08/25 04:56:51;;;;;;;2.67;2.58;;;24.70;66.60;;;;;;5036000;28;43422;-67
2022/08/25 04:59:25;;;;;;;3.00;2.70;;;24.70;66.60;;;;;;5036850;28;43451;-67
2022/08/25 05:02:00;;;;;;;2.60;2.40;;;24.70;66.60;;;;;;5035001;28;43509;-67
2022/08/25 05:04:30;;;;;;;2.28;2.17;;;24.70;66.60;;;;;;5030685;28;44012;-67
2022/08/25 05:06:58;;;;;;;2.60;2.50;;;24.70;66.60;;;;;;5034456;28;43692;-67
2022/08/25 05:09:26;;;;;;;2.45;2.35;;;24.70;66.60;;;;;;5039970;28;43489;-67
2022/08/25 05:11:54;;;;;;;3.03;2.83;;;24.70;66.50;;;;;;5039788;28;43554;-66
2022/08/25 05:14:22;;;;;;;2.42;2.33;;;24.70;66.50;;;;;;5040957;28;44963;-67
2022/08/25 05:16:56;;;;;;;2.63;2.42;;;24.70;66.50;;;;;;5035279;28;43789;-67
2022/08/25 05:19:25;;;;;;;2.80;2.60;;;24.70;66.50;;;;;;5042809;28;43546;-69
2022/08/25 05:21:53;;;;;;;2.50;2.40;;;24.70;66.50;;;;;;5032172;28;43529;-68
2022/08/25 05:24:25;;;;;;;2.65;2.45;;;24.70;66.40;;;;;;5035148;28;43794;-67
2022/08/25 05:26:53;;;;;;;2.53;2.33;;;24.70;67.10;;;;;;5037564;28;43442;-68
2022/08/25 05:29:20;;;;;;;2.60;2.40;;;24.70;66.40;;;;;;5034615;28;43483;-67
2022/08/25 05:31:48;;;;;;;2.78;2.58;;;24.70;66.50;;;;;;5037693;28;43554;-68
2022/08/25 05:34:18;;;;;;;2.60;2.40;;;24.70;66.40;;;;;;5035819;28;45069;-68
2022/08/25 05:36:47;;;;;;;2.55;2.45;;;24.70;66.50;;;;;;5037081;28;44263;-69
2022/08/25 05:39:14;;;;;;;2.67;2.47;;;24.70;66.50;;;;;;5034094;28;43431;-68
2022/08/25 05:41:42;;;;;;;2.80;2.58;;;24.70;66.50;;;;;;5035672;28;43564;-68
2022/08/25 05:44:11;;;;;;;2.97;2.78;;;24.70;66.50;;;;;;5033136;28;45072;-68
2022/08/25 05:46:39;;;;;;;2.90;2.70;;;24.70;66.50;;;;;;5039253;28;44303;-69
2022/08/25 05:49:06;;;;;;;2.90;2.70;;;24.70;66.50;;;;;;5033296;28;43454;-67
2022/08/25 05:51:34;;;;;;;2.75;2.60;;;24.60;66.50;;;;;;5034678;28;43416;-68
2022/08/25 05:54:02;;;;;;;2.63;2.40;;;24.60;66.50;;;;;;5037656;28;44975;-68
2022/08/25 05:56:30;;;;;;;2.92;2.70;;;24.60;66.50;;;;;;5040069;28;43904;-68
2022/08/25 05:58:57;;;;;;;2.92;2.72;;;24.60;66.50;;;;;;5041106;28;43462;-68
2022/08/25 06:04:15;;;;;;;2.95;2.75;;;24.60;66.50;;;;;;5046078;28;44683;-67
2022/08/25 06:06:42;;;;;;;3.15;2.95;;;24.60;66.50;;;;;;5034970;28;43488;-67
2022/08/25 06:09:10;;;;;;;3.10;2.90;;;24.60;66.60;;;;;;5043630;28;43493;-65
2022/08/25 06:11:39;;;;;;;3.20;3.00;;;24.60;66.50;;;;;;5034963;28;43480;-68
2022/08/25 06:14:08;;;;;;;2.85;2.60;;;24.60;66.50;;;;;;5040259;28;43787;-68
2022/08/25 06:16:37;;;;;;;3.00;2.80;;;24.60;66.50;;;;;;5032349;28;43551;-68
2022/08/25 06:19:07;;;;;;;2.97;2.78;;;24.60;66.50;;;;;;5029532;28;43499;-68
2022/08/25 06:21:36;;;;;;;3.30;3.00;;;24.60;66.50;;;;;;5036145;28;43550;-68
2022/08/25 06:24:04;;;;;;;2.70;2.50;;;24.60;66.50;;;;;;5039579;28;44718;-68
2022/08/25 06:26:32;;;;;;;3.30;3.00;;;24.50;66.40;;;;;;5039515;28;44034;-68
2022/08/25 06:29:00;;;;;;;3.05;2.85;;;24.50;66.40;;;;;;5041822;28;43481;-67
2022/08/25 06:31:27;;;;;;;3.35;3.10;;;24.50;66.40;;;;;;5035962;28;43485;-68
2022/08/25 06:33:55;;;;;;;3.33;3.03;;;24.50;66.30;;;;;;5036936;28;44078;-68
2022/08/25 06:36:22;;;;;;;2.80;2.60;;;24.50;66.40;;;;;;5034005;28;43988;-68
2022/08/25 06:38:52;;;;;;;2.90;2.70;;;24.50;66.40;;;;;;5034472;28;43791;-68
2022/08/25 06:41:19;;;;;;;3.30;3.10;;;24.50;66.30;;;;;;5036416;28;43447;-68
2022/08/25 06:43:47;;;;;;;3.13;2.92;;;24.50;66.30;;;;;;5023161;28;44944;-68
2022/08/25 06:46:25;;;;;;;4.05;3.30;;;24.50;66.30;;;;;;5026643;28;43695;-69
2022/08/25 06:49:03;;;;;;;3.88;3.50;;;24.50;66.30;;;;;;5040487;28;43424;-68
2022/08/25 06:51:31;;;;;;;3.10;2.90;;;24.50;66.30;;;;;;5038791;28;43447;-68
2022/08/25 06:53:59;;;;;;;3.50;3.20;;;24.50;66.30;;;;;;5033039;28;44721;-68
2022/08/25 06:56:26;;;;;;;3.20;2.90;;;24.50;66.30;;;;;;5032453;28;44060;-68
2022/08/25 06:58:54;;;;;;;2.95;2.75;;;24.50;66.30;;;;;;5052519;28;43443;-67
2022/08/25 07:01:25;;;;;;;3.40;3.10;;;24.50;66.20;;;;;;5035541;28;43380;-68
2022/08/25 07:03:56;;;;;;;3.35;3.08;;;24.50;66.30;;;;;;5025481;28;43785;-68
2022/08/25 07:06:34;;;;;;;3.22;3.00;;;24.50;66.30;;;;;;5034718;28;43573;-68
2022/08/25 07:09:04;;;;;;;3.47;3.17;;;24.40;66.30;;;;;;5036876;28;43417;-67
2022/08/25 07:11:33;;;;;;;3.25;3.00;;;24.50;66.30;;;;;;5035742;28;43444;-68
2022/08/25 07:14:02;;;;;;;3.67;3.38;;;24.50;66.30;;;;;;5039957;28;44066;-67
2022/08/25 07:16:31;;;;;;;3.60;3.30;;;24.50;66.30;;;;;;5051221;28;43684;-68
2022/08/25 07:19:00;;;;;;;3.35;3.13;;;24.50;66.30;;;;;;5037574;28;43951;-67
2022/08/25 07:21:30;;;;;;;3.17;2.97;;;24.40;66.20;;;;;;5030520;28;43607;-68
2022/08/25 07:24:05;;;;;;;3.63;3.30;;;24.50;66.30;;;;;;5034190;28;44964;-68
2022/08/25 07:26:34;;;;;;;3.38;3.08;;;24.50;66.20;;;;;;5036050;28;43836;-67
2022/08/25 07:29:14;;;;;;;3.42;3.13;;;24.50;66.30;;;;;;5022285;28;43428;-68
2022/08/25 07:31:42;;;;;;;3.40;3.10;;;24.40;66.20;;;;;;5031197;28;43543;-68
2022/08/25 07:36:56;;;;;;;3.95;3.28;;;24.50;66.30;;;;;;5040984;28;43543;-68
2022/08/25 07:39:25;;;;;;;4.07;3.72;;;24.50;66.20;;;;;;5031400;28;43476;-68
2022/08/25 07:41:55;;;;;;;;;;;24.50;66.20;;;;;;5032320;28;43487;-68
2022/08/25 07:44:24;;;;;;;3.50;3.20;;;24.50;66.20;;;;;;5033647;28;43574;-68
2022/08/25 07:46:54;;;;;;;3.58;3.30;;;24.50;66.30;;;;;;5021815;28;43350;-68
2022/08/25 07:49:24;;;;;;;3.80;3.53;;;24.50;66.10;;;;;;5027922;28;43490;-68
2022/08/25 07:51:53;;;;;;;3.75;3.45;;;24.50;66.20;;;;;;5034100;28;43460;-68
2022/08/25 07:54:34;;;;;;;3.50;3.20;;;24.50;66.20;;;;;;5035637;28;44115;-68
2022/08/25 07:57:07;;;;;;;3.83;3.53;;;24.50;66.20;;;;;;5030773;28;43718;-68
2022/08/25 07:59:39;;;;;;;3.95;3.65;;;24.50;66.20;;;;;;5034744;28;43430;-68
2022/08/25 08:02:11;;;;;;;3.80;3.50;;;24.50;66.10;;;;;;5030900;28;43482;-68
2022/08/25 08:04:50;;;;;;;3.38;3.08;;;24.50;66.20;;;;;;5037846;28;45102;-68
2022/08/25 08:07:25;;;;;;;5.32;4.05;;;24.50;66.00;;;;;;5027973;28;43454;-68
2022/08/25 08:10:12;;;;;;;3.70;3.40;;;24.50;65.80;;;;;;5026813;28;43430;-68
2022/08/25 08:13:01;;;;;;;4.93;3.90;;;24.50;65.40;;;;;;5032886;28;43594;-68
2022/08/25 08:15:29;;;;;;;4.22;3.50;;;24.60;65.60;;;;;;5039617;28;44187;-67
2022/08/25 08:17:59;;;;;;;3.35;3.10;;;24.60;65.60;;;;;;5026503;28;45022;-67
2022/08/25 08:20:32;;;;;;;5.10;3.92;;;24.60;65.50;;;;;;5034927;28;43487;-67
2022/08/25 08:23:10;;;;;;;4.33;3.73;;;24.60;65.60;;;;;;5041556;28;43551;-67
2022/08/25 08:25:37;;;;;;;3.95;3.50;;;24.60;65.60;;;;;;5040804;28;43791;-67
2022/08/25 08:28:06;;;;;;;4.40;3.63;;;24.60;65.60;;;;;;5043055;28;43448;-67
2022/08/25 08:30:35;;;;;;;3.50;3.13;;;24.60;65.50;;;;;;5038567;28;43594;-67
2022/08/25 08:33:04;;;;;;;4.45;4.05;;;24.70;65.50;;;;;;5043373;28;43481;-67
2022/08/25 08:35:39;;;;;;;4.28;3.97;;;24.70;65.50;;;;;;5040257;28;43805;-67
2022/08/25 08:38:08;;;;;;;3.70;3.40;;;24.70;65.50;;;;;;5030360;28;43435;-67
2022/08/25 08:44:00;;;;;;;4.20;3.90;;;24.70;65.30;;;;;;5037870;28;43451;-67
2022/08/25 08:46:42;;;;;;;3.95;3.65;;;24.70;65.30;;;;;;5029716;28;44189;-67
2022/08/25 08:49:27;;;;;;;3.67;3.38;;;24.70;65.40;;;;;;5048533;28;43697;-67
2022/08/25 08:52:00;;;;;;;4.70;3.90;;;24.70;65.30;;;;;;5030172;28;43392;-67
2022/08/25 08:54:34;;;;;;;4.00;3.70;;;24.80;65.30;;;;;;5031976;28;43530;-67
2022/08/25 08:57:25;;;;;;;4.03;3.58;;;24.70;65.30;;;;;;5033390;28;44665;-67
2022/08/25 09:00:06;;;;;;;5.30;3.40;;;24.80;65.30;;;;;;5040043;28;43954;-67
2022/08/25 09:02:42;;;;;;;4.93;3.60;;;24.80;65.30;;;;;;5030448;28;43491;-67
2022/08/25 09:05:23;;;;;;;4.13;3.38;;;24.80;65.30;;;;;;5029366;28;43447;-68
2022/08/25 09:07:55;;;;;;;3.88;3.47;;;24.80;65.30;;;;;;5036359;28;44975;-67
2022/08/25 09:10:31;;;;;;;4.28;3.60;;;24.90;65.30;;;;;;5041480;28;44031;-68
2022/08/25 09:13:35;;;;;;;4.18;3.78;;;24.90;65.20;;;;;;5056806;28;43466;-68
2022/08/25 09:20:01;;;;;;;3.67;3.40;;;25.00;65.40;;;;;;5041335;28;44036;-68
2022/08/25 09:22:36;;;;;;;4.28;3.80;;;25.00;65.60;;;;;;5031083;28;44079;-67
2022/08/25 09:25:17;;;;;;;4.10;3.75;;;25.00;65.50;;;;;;5030660;28;43455;-65
2022/08/25 09:28:26;;;;;;;4.07;3.67;;;25.00;65.90;;;;;;5041537;28;43561;-64
2022/08/25 09:31:08;;;;;;;4.70;3.65;;;25.00;65.80;;;;;;5025948;28;44321;-65
2022/08/25 09:33:35;;;;;;;4.95;3.70;;;25.00;65.90;;;;;;5035615;28;43473;-65
2022/08/25 09:36:04;;;;;;;4.10;3.72;;;25.00;66.00;;;;;;5038641;28;43571;-65
2022/08/25 09:38:35;;;;;;;4.20;3.80;;;25.00;65.80;;;;;;5039294;28;43655;-66
2022/08/25 09:41:06;;;;;;;4.07;3.70;;;25.10;65.90;;;;;;5042376;28;44943;-65
2022/08/25 09:43:42;;;;;;;3.83;3.50;;;25.10;65.90;;;;;;5041466;28;43495;-65
2022/08/25 09:46:09;;;;;;;4.03;3.42;;;25.10;65.90;;;;;;5037996;28;43451;-66
2022/08/25 09:48:47;;;;;;;3.65;3.30;;;25.20;65.90;;;;;;5037016;28;43643;-65
2022/08/25 09:51:27;;;;;;;3.92;3.50;;;25.20;65.80;;;;;;5031715;28;44934;-65
2022/08/25 09:53:58;;;;;;;3.80;3.50;;;25.20;65.80;;;;;;5029928;28;44032;-66
2022/08/25 09:56:32;;;;;;;3.63;3.37;;;25.30;65.80;;;;;;5039767;28;43609;-66
2022/08/25 09:59:22;;;;;;;3.92;3.50;;;25.30;65.80;;;;;;5041146;28;43480;-65
2022/08/25 10:02:03;;;;;;;3.70;3.40;;;25.20;65.50;;;;;;5038015;28;44664;-66
2022/08/25 10:04:35;;;;;;;3.35;3.05;;;25.30;65.70;;;;;;5037788;28;43510;-65
2022/08/25 10:07:29;;;;;;;3.72;3.35;;;25.30;65.70;;;;;;5041280;28;43456;-66
2022/08/25 10:10:02;;;;;;;3.67;3.38;;;25.30;65.70;;;;;;5038667;28;43488;-66
2022/08/25 10:12:42;;;;;;;3.45;2.97;;;25.30;65.70;;;;;;5038707;28;44072;-66
2022/08/25 10:15:34;;;;;;;3.30;3.00;;;25.40;65.60;;;;;;5038684;28;43389;-66
2022/08/25 10:18:25;;;;;;;3.08;2.88;;;25.40;65.70;;;;;;5035452;28;43448;-66
2022/08/25 10:21:02;;;;;;;4.78;3.35;;;25.40;65.60;;;;;;5039354;28;44104;-66
2022/08/25 10:23:35;;;;;;;;;;;25.40;65.60;;;;;;5039678;28;44077;-66
2022/08/25 10:26:11;;;;;;;3.30;3.00;;;25.40;65.60;;;;;;5038065;28;43797;-66
2022/08/25 10:28:49;;;;;;;3.47;3.28;;;25.40;65.60;;;;;;5040432;28;43434;-66
2022/08/25 10:31:44;;;;;;;3.55;3.25;;;25.40;65.70;;;;;;5038164;28;43610;-66
2022/08/25 10:34:33;;;;;;;4.15;3.22;;;25.40;65.50;;;;;;5053051;28;44061;-66
2022/08/25 10:37:11;;;;;;;3.42;3.22;;;25.40;65.50;;;;;;5039618;28;43678;-65
2022/08/25 10:39:45;;;;;;;3.45;3.20;;;25.50;65.60;;;;;;5039935;28;43594;-66
2022/08/25 10:42:55;;;;;;;3.80;3.50;;;25.50;65.60;;;;;;5029735;28;43422;-66
2022/08/25 10:45:44;;;;;;;3.10;2.90;;;25.50;65.60;;;;;;5032001;28;43638;-66
2022/08/25 10:48:21;;;;;;;3.50;3.20;;;25.50;65.50;;;;;;5038132;28;43554;-66
2022/08/25 10:50:51;;;;;;;3.53;3.10;;;25.60;65.50;;;;;;5039992;28;43531;-66
2022/08/25 10:53:41;;;;;;;3.55;3.25;;;25.60;65.50;;;;;;5039799;28;43617;-66
2022/08/25 10:56:17;;;;;;;3.83;3.53;;;25.60;65.40;;;;;;5033938;28;44180;-67
2022/08/25 10:59:06;;;;;;;3.25;3.03;;;25.60;65.30;;;;;;5039047;28;43942;-67
2022/08/25 11:02:00;;;;;;;3.70;3.10;;;25.70;65.30;;;;;;5036582;28;43483;-66
2022/08/25 11:04:39;;;;;;;3.53;3.22;;;25.70;65.30;;;;;;5055546;28;43388;-67
2022/08/25 11:07:25;;;;;;;3.42;3.17;;;25.70;65.20;;;;;;5039172;28;43902;-66
2022/08/25 11:09:59;;;;;;;3.40;3.03;;;25.70;65.30;;;;;;5037855;28;44221;-67
2022/08/25 11:12:32;;;;;;;3.47;3.17;;;25.70;65.30;;;;;;5038493;28;43564;-66
2022/08/25 11:15:16;;;;;;;3.72;2.97;;;25.70;65.30;;;;;;5035379;28;43565;-66
2022/08/25 11:17:57;;;;;;;3.88;3.13;;;25.70;65.00;;;;;;5039370;28;44982;-66
2022/08/25 11:20:35;;;;;;;3.40;3.20;;;25.80;64.90;;;;;;5036433;28;43527;-66
2022/08/25 11:23:24;;;;;;;3.47;3.17;;;25.80;64.90;;;;;;5039275;28;43531;-66
2022/08/25 11:25:58;;;;;;;4.88;3.67;;;25.90;65.00;;;;;;5039184;28;43654;-66
2022/08/25 11:28:49;;;;;;;3.60;3.30;;;25.90;65.60;;;;;;5039211;28;43764;-66
2022/08/25 11:31:18;;;;;;;3.30;3.00;;;25.90;65.00;;;;;;5032603;28;43985;-67
2022/08/25 11:33:49;;;;;;;3.70;3.40;;;25.90;65.00;;;;;;5039538;28;43498;-66
2022/08/25 11:36:24;;;;;;;4.18;3.55;;;25.90;64.90;;;;;;5025787;28;43483;-66
2022/08/25 11:39:11;;;;;;;4.05;3.65;;;25.90;65.00;;;;;;5040391;28;44040;-66
2022/08/25 11:42:17;;;;;;;3.88;3.58;;;26.00;65.40;;;;;;5038985;28;43472;-67
2022/08/25 11:45:03;;;;;;;3.65;3.35;;;26.00;65.40;;;;;;5039417;28;43546;-67
2022/08/25 11:47:46;;;;;;;3.58;3.17;;;26.00;65.30;;;;;;5036345;28;43543;-66
2022/08/25 11:50:52;;;;;;;3.47;3.17;;;26.10;65.40;;;;;;5038749;28;43791;-67
2022/08/25 11:53:25;;;;;;;3.55;3.22;;;26.10;65.40;;;;;;5038835;28;44020;-66
2022/08/25 11:56:04;;;;;;;3.70;3.40;;;26.20;65.50;;;;;;5039855;28;43522;-67
2022/08/25 11:58:45;;;;;;;3.30;3.10;;;26.20;65.30;;;;;;5036844;28;43406;-67
2022/08/25 12:01:43;;;;;;;3.55;3.25;;;26.20;65.20;;;;;;5043043;28;44095;-66
2022/08/25 12:04:34;;;;;;;3.35;3.05;;;26.30;65.30;;;;;;5041615;28;43750;-66
2022/08/25 12:07:13;;;;;;;3.83;3.50;;;26.30;65.20;;;;;;5043463;28;43479;-67
2022/08/25 12:09:52;;;;;;;3.85;3.55;;;26.30;65.20;;;;;;5041486;28;43478;-67
2022/08/25 12:12:55;;;;;;;3.33;3.13;;;26.30;65.10;;;;;;5041876;28;44019;-67
2022/08/25 12:15:41;;;;;;;3.80;3.50;;;26.40;65.10;;;;;;5040316;28;43533;-67
2022/08/25 12:18:16;;;;;;;3.63;3.42;;;26.40;65.00;;;;;;5038841;28;43503;-66
2022/08/25 12:20:54;;;;;;;3.90;3.60;;;26.40;65.10;;;;;;5040605;28;43553;-66
2022/08/25 12:23:41;;;;;;;4.38;3.33;;;26.40;65.00;;;;;;5041245;28;44659;-66
2022/08/25 12:26:39;;;;;;;3.75;3.53;;;26.40;64.90;;;;;;5038345;28;43997;-66
2022/08/25 12:29:25;;;;;;;3.63;3.33;;;26.50;64.90;;;;;;5043305;28;43542;-65
2022/08/25 12:31:58;;;;;;;3.92;3.63;;;26.50;64.90;;;;;;5040328;28;43401;-66
2022/08/25 12:35:21;;;;;;;3.80;3.53;;;26.50;64.80;;;;;;5042668;28;44852;-67
2022/08/25 12:38:09;;;;;;;3.72;3.45;;;26.50;64.80;;;;;;5021055;28;43987;-66
2022/08/25 12:40:41;;;;;;;3.55;3.25;;;26.60;64.90;;;;;;5041962;28;43487;-66
2022/08/25 12:43:26;;;;;;;3.70;3.40;;;26.60;64.80;;;;;;5042503;28;43487;-66
2022/08/25 12:46:25;;;;;;;3.90;3.60;;;26.60;64.70;;;;;;5042004;28;44005;-66
2022/08/25 12:49:13;;;;;;;3.83;3.53;;;26.60;64.70;;;;;;5039592;28;43931;-66
2022/08/25 12:52:17;;;;;;;3.58;3.38;;;26.70;64.80;;;;;;5039456;28;43420;-66
2022/08/25 12:54:58;;;;;;;5.53;4.07;;;26.70;64.60;;;;;;5000010;28;43488;-66
2022/08/25 12:57:44;;;;;;;4.05;3.65;;;26.70;64.60;;;;;;5038297;28;44055;-66
2022/08/25 13:00:16;;;;;;;3.83;3.47;;;26.70;64.60;;;;;;5041352;28;43962;-66
2022/08/25 13:02:56;;;;;;;3.25;3.05;;;26.70;64.60;;;;;;5041941;28;43462;-66
2022/08/25 13:05:54;;;;;;;3.80;3.50;;;26.80;64.60;;;;;;5034198;28;43557;-66
2022/08/25 13:08:46;;;;;;;3.30;3.10;;;26.80;64.50;;;;;;5042799;28;43944;-66
2022/08/25 13:11:46;;;;;;;3.38;3.17;;;26.80;64.50;;;;;;5037771;28;43997;-66
2022/08/25 13:14:17;;;;;;;3.80;3.50;;;26.80;64.50;;;;;;5032999;28;43614;-66
2022/08/25 13:16:54;;;;;;;3.67;3.38;;;26.80;64.60;;;;;;5034093;28;43625;-66
2022/08/25 13:19:24;;;;;;;3.67;3.38;;;26.80;64.50;;;;;;5040585;28;43792;-66
2022/08/25 13:21:53;;;;;;;3.73;3.43;;;26.90;64.60;;;;;;5031381;28;44116;-66
2022/08/25 13:24:23;;;;;;;3.80;3.50;;;26.90;64.40;;;;;;5041421;28;43520;-66
2022/08/25 13:27:04;;;;;;;3.55;3.30;;;26.90;64.50;;;;;;5040339;28;43500;-66
2022/08/25 13:29:35;;;;;;;3.28;3.08;;;26.90;64.40;;;;;;5041647;28;44818;-66
2022/08/25 13:32:11;;;;;;;3.65;3.40;;;27.00;64.50;;;;;;5036186;28;44009;-66
2022/08/25 13:34:42;;;;;;;4.00;3.30;;;27.00;64.40;;;;;;5027101;28;43422;-66
2022/08/25 13:37:27;;;;;;;;;;;27.00;64.40;;;;;;5042267;28;43538;-66